sensor_id;sensor_type;location;lat;lon;timestamp;pressure;altitude;pressure_sealevel;temperature;humidity
43503;BME280;29098;48.184;16.298;2023-02-19T00:01:09;99471.78;;;12.90;67.13
43503;BME280;29098;48.184;16.298;2023-02-19T00:03:38;99476.44;;;12.88;67.00
43503;BME280;29098;48.184;16.298;2023-02-19T00:06:05;99475.44;;;12.89;67.39
43503;BME280;29098;48.184;16.298;2023-02-19T00:08:31;99489.28;;;12.91;66.92
43503;BME280;29098;48.184;16.298;2023-02-19T00:11:03;99474.66;;;12.95;67.13
43503;BME280;29098;48.184;16.298;2023-02-19T00:13:29;99470.94;;;12.90;67.14
43503;BME280;29098;48.184;16.298;2023-02-19T00:15:55;99478.50;;;12.93;67.30
43503;BME280;29098;48.184;16.298;2023-02-19T00:18:20;99481.09;;;12.86;67.65
43503;BME280;29098;48.184;16.298;2023-02-19T00:20:46;99488.03;;;12.87;67.52
43503;BME280;29098;48.184;16.298;2023-02-19T00:23:11;99482.31;;;12.83;67.81
43503;BME280;29098;48.184;16.298;2023-02-19T00:25:36;99488.69;;;12.96;67.65
43503;BME280;29098;48.184;16.298;2023-02-19T00:28:02;99482.34;;;12.90;67.45
43503;BME280;29098;48.184;16.298;2023-02-19T00:30:27;99488.75;;;13.02;67.50
43503;BME280;29098;48.184;16.298;2023-02-19T00:32:53;99493.91;;;12.82;67.88
43503;BME280;29098;48.184;16.298;2023-02-19T00:35:19;99502.84;;;12.81;68.39
43503;BME280;29098;48.184;16.298;2023-02-19T00:37:45;99503.91;;;12.87;68.14
43503;BME280;29098;48.184;16.298;2023-02-19T00:40:10;99506.50;;;12.80;68.38
43503;BME280;29098;48.184;16.298;2023-02-19T00:42:35;99512.81;;;12.79;68.40
43503;BME280;29098;48.184;16.298;2023-02-19T00:45:01;99522.06;;;12.68;69.08
43503;BME280;29098;48.184;16.298;2023-02-19T00:47:26;99506.06;;;12.77;68.89
43503;BME280;29098;48.184;16.298;2023-02-19T00:49:51;99509.22;;;12.87;68.88
43503;BME280;29098;48.184;16.298;2023-02-19T00:52:17;99504.25;;;12.77;69.47
43503;BME280;29098;48.184;16.298;2023-02-19T00:54:42;99502.19;;;12.72;69.40
43503;BME280;29098;48.184;16.298;2023-02-19T00:57:07;99498.09;;;12.70;69.66
43503;BME280;29098;48.184;16.298;2023-02-19T00:59:33;99501.50;;;12.64;69.98
43503;BME280;29098;48.184;16.298;2023-02-19T01:01:58;99510.69;;;12.68;70.22
43503;BME280;29098;48.184;16.298;2023-02-19T01:04:23;99506.59;;;12.65;70.66
43503;BME280;29098;48.184;16.298;2023-02-19T01:06:49;99511.44;;;12.62;70.91
43503;BME280;29098;48.184;16.298;2023-02-19T01:09:14;99514.97;;;12.69;70.76
43503;BME280;29098;48.184;16.298;2023-02-19T01:11:39;99504.97;;;12.64;71.04
43503;BME280;29098;48.184;16.298;2023-02-19T01:14:05;99505.78;;;12.65;71.36
43503;BME280;29098;48.184;16.298;2023-02-19T01:16:30;99499.59;;;12.57;71.64
43503;BME280;29098;48.184;16.298;2023-02-19T01:18:56;99497.84;;;12.43;72.62
43503;BME280;29098;48.184;16.298;2023-02-19T01:21:22;99501.94;;;12.45;72.46
43503;BME280;29098;48.184;16.298;2023-02-19T01:23:49;99493.78;;;12.40;73.29
43503;BME280;29098;48.184;16.298;2023-02-19T01:26:16;99496.22;;;12.42;72.88
43503;BME280;29098;48.184;16.298;2023-02-19T01:28:41;99494.84;;;12.46;73.23
43503;BME280;29098;48.184;16.298;2023-02-19T01:31:09;99497.06;;;12.42;73.68
43503;BME280;29098;48.184;16.298;2023-02-19T01:33:34;99490.06;;;12.35;74.52
43503;BME280;29098;48.184;16.298;2023-02-19T01:36:02;99483.75;;;12.36;74.92
43503;BME280;29098;48.184;16.298;2023-02-19T01:38:27;99478.72;;;12.41;74.64
43503;BME280;29098;48.184;16.298;2023-02-19T01:40:54;99493.28;;;12.30;75.25
43503;BME280;29098;48.184;16.298;2023-02-19T01:43:19;99487.19;;;12.29;75.38
43503;BME280;29098;48.184;16.298;2023-02-19T01:45:45;99476.22;;;12.32;75.55
43503;BME280;29098;48.184;16.298;2023-02-19T01:50:46;99481.50;;;12.32;76.32
43503;BME280;29098;48.184;16.298;2023-02-19T01:53:13;99472.88;;;12.24;76.75
43503;BME280;29098;48.184;16.298;2023-02-19T01:55:40;99468.69;;;12.29;76.29
43503;BME280;29098;48.184;16.298;2023-02-19T01:58:09;99462.00;;;12.33;76.31
43503;BME280;29098;48.184;16.298;2023-02-19T02:00:34;99475.91;;;12.21;76.80
43503;BME280;29098;48.184;16.298;2023-02-19T02:03:01;99467.59;;;12.24;76.83
43503;BME280;29098;48.184;16.298;2023-02-19T02:05:34;99465.16;;;12.22;77.10
43503;BME280;29098;48.184;16.298;2023-02-19T02:08:01;99462.69;;;12.21;77.45
43503;BME280;29098;48.184;16.298;2023-02-19T02:10:45;99456.03;;;12.25;77.37
43503;BME280;29098;48.184;16.298;2023-02-19T02:13:11;99446.00;;;12.20;77.52
43503;BME280;29098;48.184;16.298;2023-02-19T02:15:39;99450.31;;;12.21;77.21
43503;BME280;29098;48.184;16.298;2023-02-19T02:18:12;99442.25;;;12.08;78.06
43503;BME280;29098;48.184;16.298;2023-02-19T02:31:11;99445.16;;;11.76;81.35
43503;BME280;29098;48.184;16.298;2023-02-19T02:33:52;99444.28;;;11.90;81.51
43503;BME280;29098;48.184;16.298;2023-02-19T02:36:22;99454.09;;;11.75;82.31
43503;BME280;29098;48.184;16.298;2023-02-19T02:38:51;99451.28;;;11.76;82.49
43503;BME280;29098;48.184;16.298;2023-02-19T02:41:18;99445.34;;;11.74;83.58
43503;BME280;29098;48.184;16.298;2023-02-19T02:43:44;99444.34;;;11.75;83.92
43503;BME280;29098;48.184;16.298;2023-02-19T02:46:10;99443.13;;;11.78;84.46
43503;BME280;29098;48.184;16.298;2023-02-19T02:56:26;99431.19;;;11.60;90.63
43503;BME280;29098;48.184;16.298;2023-02-19T02:58:52;99432.47;;;11.49;90.72
43503;BME280;29098;48.184;16.298;2023-02-19T03:01:19;99433.41;;;11.42;92.70
43503;BME280;29098;48.184;16.298;2023-02-19T03:04:10;99425.28;;;11.43;92.95
43503;BME280;29098;48.184;16.298;2023-02-19T03:06:37;99422.91;;;11.48;93.21
43503;BME280;29098;48.184;16.298;2023-02-19T03:09:19;99426.56;;;11.47;93.62
43503;BME280;29098;48.184;16.298;2023-02-19T03:11:48;99423.66;;;11.42;94.28
43503;BME280;29098;48.184;16.298;2023-02-19T03:14:40;99424.50;;;11.28;94.18
43503;BME280;29098;48.184;16.298;2023-02-19T03:17:30;99411.75;;;11.46;93.25
43503;BME280;29098;48.184;16.298;2023-02-19T03:20:15;99412.75;;;11.45;93.20
43503;BME280;29098;48.184;16.298;2023-02-19T03:22:44;99410.72;;;11.47;93.18
43503;BME280;29098;48.184;16.298;2023-02-19T03:25:11;99415.94;;;11.41;93.85
43503;BME280;29098;48.184;16.298;2023-02-19T03:27:56;99415.50;;;11.37;94.12
43503;BME280;29098;48.184;16.298;2023-02-19T03:30:24;99421.84;;;11.28;95.73
43503;BME280;29098;48.184;16.298;2023-02-19T03:32:56;99411.41;;;11.34;95.68
43503;BME280;29098;48.184;16.298;2023-02-19T03:35:25;99409.56;;;11.35;96.22
43503;BME280;29098;48.184;16.298;2023-02-19T03:40:37;99418.75;;;11.24;97.39
43503;BME280;29098;48.184;16.298;2023-02-19T03:43:14;99416.50;;;11.21;97.80
43503;BME280;29098;48.184;16.298;2023-02-19T03:45:55;99421.50;;;11.31;95.40
43503;BME280;29098;48.184;16.298;2023-02-19T03:48:29;99418.13;;;11.22;97.07
43503;BME280;29098;48.184;16.298;2023-02-19T03:53:37;99419.03;;;11.29;96.05
43503;BME280;29098;48.184;16.298;2023-02-19T03:56:15;99408.13;;;11.17;96.04
43503;BME280;29098;48.184;16.298;2023-02-19T03:58:55;99381.03;;;11.08;96.11
43503;BME280;29098;48.184;16.298;2023-02-19T04:01:40;99408.03;;;11.26;95.70
43503;BME280;29098;48.184;16.298;2023-02-19T04:06:36;99411.16;;;11.14;95.64
43503;BME280;29098;48.184;16.298;2023-02-19T04:09:03;99409.66;;;11.27;95.02
43503;BME280;29098;48.184;16.298;2023-02-19T04:11:30;99408.66;;;11.28;95.03
43503;BME280;29098;48.184;16.298;2023-02-19T04:14:01;99408.69;;;11.13;95.67
43503;BME280;29098;48.184;16.298;2023-02-19T04:16:29;99417.16;;;11.08;96.17
43503;BME280;29098;48.184;16.298;2023-02-19T04:18:58;99405.88;;;11.14;96.37
43503;BME280;29098;48.184;16.298;2023-02-19T04:21:27;99417.16;;;11.08;96.77
43503;BME280;29098;48.184;16.298;2023-02-19T04:23:53;99404.25;;;11.13;96.16
43503;BME280;29098;48.184;16.298;2023-02-19T04:26:19;99399.16;;;11.12;95.77
43503;BME280;29098;48.184;16.298;2023-02-19T04:28:46;99403.97;;;11.08;96.37
43503;BME280;29098;48.184;16.298;2023-02-19T04:31:12;99404.59;;;11.10;96.27
43503;BME280;29098;48.184;16.298;2023-02-19T04:33:38;99412.16;;;10.98;97.03
43503;BME280;29098;48.184;16.298;2023-02-19T04:36:03;99397.25;;;11.05;96.57
43503;BME280;29098;48.184;16.298;2023-02-19T04:38:28;99405.06;;;10.99;97.27
43503;BME280;29098;48.184;16.298;2023-02-19T04:40:54;99405.19;;;10.90;97.94
43503;BME280;29098;48.184;16.298;2023-02-19T04:43:19;99406.25;;;10.96;97.62
43503;BME280;29098;48.184;16.298;2023-02-19T04:45:44;99400.94;;;11.11;96.31
43503;BME280;29098;48.184;16.298;2023-02-19T04:48:10;99390.59;;;11.09;96.49
43503;BME280;29098;48.184;16.298;2023-02-19T04:50:38;99391.69;;;11.15;96.06
43503;BME280;29098;48.184;16.298;2023-02-19T04:53:04;99386.31;;;11.23;95.84
43503;BME280;29098;48.184;16.298;2023-02-19T04:55:30;99396.16;;;11.00;98.14
43503;BME280;29098;48.184;16.298;2023-02-19T04:57:55;99403.69;;;11.03;99.33
43503;BME280;29098;48.184;16.298;2023-02-19T05:00:20;99386.63;;;10.99;99.95
43503;BME280;29098;48.184;16.298;2023-02-19T05:02:46;99384.22;;;11.04;100.00
43503;BME280;29098;48.184;16.298;2023-02-19T05:05:11;99370.47;;;11.08;100.00
43503;BME280;29098;48.184;16.298;2023-02-19T05:07:37;99376.59;;;11.09;99.15
43503;BME280;29098;48.184;16.298;2023-02-19T05:10:02;99365.13;;;11.02;99.18
43503;BME280;29098;48.184;16.298;2023-02-19T05:12:28;99362.16;;;10.90;100.00
43503;BME280;29098;48.184;16.298;2023-02-19T05:14:54;99360.59;;;10.95;100.00
43503;BME280;29098;48.184;16.298;2023-02-19T05:17:19;99357.94;;;10.95;100.00
43503;BME280;29098;48.184;16.298;2023-02-19T05:19:44;99360.59;;;10.95;100.00
43503;BME280;29098;48.184;16.298;2023-02-19T05:22:10;99355.59;;;10.86;100.00
43503;BME280;29098;48.184;16.298;2023-02-19T05:24:35;99349.50;;;10.85;100.00
43503;BME280;29098;48.184;16.298;2023-02-19T05:27:01;99333.22;;;10.81;100.00
43503;BME280;29098;48.184;16.298;2023-02-19T05:29:26;99334.13;;;10.74;100.00
43503;BME280;29098;48.184;16.298;2023-02-19T05:31:51;99328.97;;;10.65;100.00
43503;BME280;29098;48.184;16.298;2023-02-19T05:34:17;99326.59;;;10.71;100.00
43503;BME280;29098;48.184;16.298;2023-02-19T05:36:42;99317.25;;;10.68;100.00
43503;BME280;29098;48.184;16.298;2023-02-19T05:39:08;99319.25;;;10.66;100.00
43503;BME280;29098;48.184;16.298;2023-02-19T05:41:35;99323.69;;;10.65;100.00
43503;BME280;29098;48.184;16.298;2023-02-19T05:44:00;99318.78;;;10.62;100.00
43503;BME280;29098;48.184;16.298;2023-02-19T05:46:27;99305.06;;;10.67;100.00
43503;BME280;29098;48.184;16.298;2023-02-19T05:48:56;99298.09;;;10.59;100.00
43503;BME280;29098;48.184;16.298;2023-02-19T05:51:25;99294.53;;;10.52;100.00
43503;BME280;29098;48.184;16.298;2023-02-19T05:53:51;99302.44;;;10.52;100.00
43503;BME280;29098;48.184;16.298;2023-02-19T05:56:22;99291.59;;;10.62;100.00
43503;BME280;29098;48.184;16.298;2023-02-19T05:58:48;99299.16;;;10.50;100.00
43503;BME280;29098;48.184;16.298;2023-02-19T06:01:15;99296.50;;;10.50;100.00
43503;BME280;29098;48.184;16.298;2023-02-19T06:03:40;99295.78;;;10.41;100.00
43503;BME280;29098;48.184;16.298;2023-02-19T06:06:06;99298.91;;;10.45;100.00
43503;BME280;29098;48.184;16.298;2023-02-19T06:08:31;99287.72;;;10.58;100.00
43503;BME280;29098;48.184;16.298;2023-02-19T06:10:57;99276.34;;;10.57;100.00
43503;BME280;29098;48.184;16.298;2023-02-19T06:13:22;99279.88;;;10.64;100.00
43503;BME280;29098;48.184;16.298;2023-02-19T06:15:47;99281.16;;;10.68;100.00
43503;BME280;29098;48.184;16.298;2023-02-19T06:18:13;99288.06;;;10.69;100.00
43503;BME280;29098;48.184;16.298;2023-02-19T06:20:38;99300.69;;;10.74;100.00
43503;BME280;29098;48.184;16.298;2023-02-19T06:23:04;99299.97;;;10.80;99.62
43503;BME280;29098;48.184;16.298;2023-02-19T06:25:29;99304.78;;;10.77;100.00
43503;BME280;29098;48.184;16.298;2023-02-19T06:27:54;99306.94;;;10.88;98.45
43503;BME280;29098;48.184;16.298;2023-02-19T06:30:19;99304.59;;;10.78;98.88
43503;BME280;29098;48.184;16.298;2023-02-19T06:32:45;99294.75;;;10.87;97.31
43503;BME280;29098;48.184;16.298;2023-02-19T06:35:10;99302.22;;;10.99;96.63
43503;BME280;29098;48.184;16.298;2023-02-19T06:37:36;99320.47;;;11.00;94.95
43503;BME280;29098;48.184;16.298;2023-02-19T06:40:01;99312.19;;;11.03;95.32
43503;BME280;29098;48.184;16.298;2023-02-19T06:42:26;99317.66;;;11.02;94.71
43503;BME280;29098;48.184;16.298;2023-02-19T06:44:55;99312.59;;;11.22;93.24
43503;BME280;29098;48.184;16.298;2023-02-19T06:47:20;99330.88;;;11.23;92.90
43503;BME280;29098;48.184;16.298;2023-02-19T06:49:45;99324.34;;;11.19;91.57
43503;BME280;29098;48.184;16.298;2023-02-19T06:52:11;99305.13;;;11.26;90.42
43503;BME280;29098;48.184;16.298;2023-02-19T06:54:36;99308.66;;;11.33;90.83
43503;BME280;29098;48.184;16.298;2023-02-19T06:57:01;99289.56;;;11.31;90.75
43503;BME280;29098;48.184;16.298;2023-02-19T06:59:27;99308.31;;;11.21;91.11
43503;BME280;29098;48.184;16.298;2023-02-19T07:01:53;99307.63;;;11.34;89.81
43503;BME280;29098;48.184;16.298;2023-02-19T07:04:18;99308.28;;;11.36;89.62
43503;BME280;29098;48.184;16.298;2023-02-19T07:06:43;99321.22;;;11.31;89.75
43503;BME280;29098;48.184;16.298;2023-02-19T07:09:09;99321.34;;;11.22;89.81
43503;BME280;29098;48.184;16.298;2023-02-19T07:11:35;99314.38;;;11.36;90.10
43503;BME280;29098;48.184;16.298;2023-02-19T07:14:02;99311.16;;;11.41;89.09
43503;BME280;29098;48.184;16.298;2023-02-19T07:16:28;99319.22;;;11.33;89.51
43503;BME280;29098;48.184;16.298;2023-02-19T07:18:57;99314.75;;;11.33;88.74
43503;BME280;29098;48.184;16.298;2023-02-19T07:21:23;99321.91;;;11.40;88.08
43503;BME280;29098;48.184;16.298;2023-02-19T07:23:48;99336.56;;;11.42;88.06
43503;BME280;29098;48.184;16.298;2023-02-19T07:26:15;99314.50;;;11.50;87.03
43503;BME280;29098;48.184;16.298;2023-02-19T07:28:44;99307.84;;;11.32;87.94
43503;BME280;29098;48.184;16.298;2023-02-19T07:31:10;99313.38;;;11.37;88.23
43503;BME280;29098;48.184;16.298;2023-02-19T07:33:35;99342.63;;;11.21;88.59
43503;BME280;29098;48.184;16.298;2023-02-19T07:36:00;99302.88;;;11.22;88.56
43503;BME280;29098;48.184;16.298;2023-02-19T07:38:27;99315.84;;;11.24;89.34
43503;BME280;29098;48.184;16.298;2023-02-19T07:40:53;99327.25;;;11.24;89.08
43503;BME280;29098;48.184;16.298;2023-02-19T07:43:19;99312.59;;;11.22;89.25
43503;BME280;29098;48.184;16.298;2023-02-19T07:45:44;99316.00;;;11.37;88.92
43503;BME280;29098;48.184;16.298;2023-02-19T07:48:10;99296.47;;;11.32;89.14
43503;BME280;29098;48.184;16.298;2023-02-19T07:50:35;99305.13;;;11.26;89.82
43503;BME280;29098;48.184;16.298;2023-02-19T07:53:01;99297.34;;;11.39;89.08
43503;BME280;29098;48.184;16.298;2023-02-19T07:55:26;99298.72;;;11.35;89.65
43503;BME280;29098;48.184;16.298;2023-02-19T07:57:51;99301.34;;;11.35;90.03
43503;BME280;29098;48.184;16.298;2023-02-19T08:00:17;99293.66;;;11.33;89.53
43503;BME280;29098;48.184;16.298;2023-02-19T08:02:44;99298.53;;;11.36;89.38
43503;BME280;29098;48.184;16.298;2023-02-19T08:05:29;99307.63;;;11.34;89.64
43503;BME280;29098;48.184;16.298;2023-02-19T08:07:55;99303.38;;;11.55;88.60
43503;BME280;29098;48.184;16.298;2023-02-19T08:10:21;99317.19;;;11.35;89.05
43503;BME280;29098;48.184;16.298;2023-02-19T08:13:06;99326.34;;;11.17;89.45
43503;BME280;29098;48.184;16.298;2023-02-19T08:18:27;99346.56;;;11.10;91.25
43503;BME280;29098;48.184;16.298;2023-02-19T08:20:56;99342.56;;;11.14;91.39
43503;BME280;29098;48.184;16.298;2023-02-19T08:23:22;99343.75;;;11.12;92.17
43503;BME280;29098;48.184;16.298;2023-02-19T08:25:48;99347.38;;;11.10;91.54
43503;BME280;29098;48.184;16.298;2023-02-19T08:28:14;99334.81;;;11.13;90.84
43503;BME280;29098;48.184;16.298;2023-02-19T08:30:40;99358.47;;;11.21;90.31
43503;BME280;29098;48.184;16.298;2023-02-19T08:33:06;99345.97;;;11.30;90.07
43503;BME280;29098;48.184;16.298;2023-02-19T08:35:33;99345.16;;;11.29;89.84
43503;BME280;29098;48.184;16.298;2023-02-19T08:37:59;99348.25;;;11.33;89.70
43503;BME280;29098;48.184;16.298;2023-02-19T08:40:25;99338.88;;;11.52;88.84
43503;BME280;29098;48.184;16.298;2023-02-19T08:42:50;99324.81;;;11.67;87.51
43503;BME280;29098;48.184;16.298;2023-02-19T08:45:16;99349.03;;;11.70;87.58
43503;BME280;29098;48.184;16.298;2023-02-19T08:47:42;99348.00;;;11.71;85.96
43503;BME280;29098;48.184;16.298;2023-02-19T08:50:07;99363.97;;;11.85;85.94
43503;BME280;29098;48.184;16.298;2023-02-19T08:52:33;99349.16;;;12.05;84.75
43503;BME280;29098;48.184;16.298;2023-02-19T08:54:59;99356.94;;;11.92;84.76
43503;BME280;29098;48.184;16.298;2023-02-19T08:57:24;99341.28;;;11.90;84.09
43503;BME280;29098;48.184;16.298;2023-02-19T08:59:50;99354.91;;;11.94;83.31
43503;BME280;29098;48.184;16.298;2023-02-19T09:02:16;99366.25;;;12.10;82.06
43503;BME280;29098;48.184;16.298;2023-02-19T09:04:41;99347.97;;;12.37;80.97
43503;BME280;29098;48.184;16.298;2023-02-19T09:07:06;99363.31;;;12.26;80.65
43503;BME280;29098;48.184;16.298;2023-02-19T09:09:35;99355.88;;;12.37;80.83
43503;BME280;29098;48.184;16.298;2023-02-19T09:12:04;99385.75;;;12.37;81.04
43503;BME280;29098;48.184;16.298;2023-02-19T09:14:30;99353.38;;;12.28;81.56
43503;BME280;29098;48.184;16.298;2023-02-19T09:16:57;99374.31;;;12.30;81.77
43503;BME280;29098;48.184;16.298;2023-02-19T09:19:22;99358.06;;;12.04;84.13
43503;BME280;29098;48.184;16.298;2023-02-19T09:21:47;99369.16;;;12.15;83.74
43503;BME280;29098;48.184;16.298;2023-02-19T09:24:13;99364.91;;;11.99;83.93
43503;BME280;29098;48.184;16.298;2023-02-19T09:26:38;99357.56;;;11.94;85.43
43503;BME280;29098;48.184;16.298;2023-02-19T09:29:03;99354.22;;;12.36;83.21
43503;BME280;29098;48.184;16.298;2023-02-19T09:31:29;99343.88;;;12.34;82.50
43503;BME280;29098;48.184;16.298;2023-02-19T09:33:54;99348.91;;;12.29;83.24
43503;BME280;29098;48.184;16.298;2023-02-19T09:36:20;99330.84;;;12.04;83.58
43503;BME280;29098;48.184;16.298;2023-02-19T09:38:45;99338.53;;;12.27;82.98
43503;BME280;29098;48.184;16.298;2023-02-19T09:41:28;99346.69;;;12.32;82.42
43503;BME280;29098;48.184;16.298;2023-02-19T09:43:54;99349.94;;;12.35;81.81
43503;BME280;29098;48.184;16.298;2023-02-19T09:48:52;99332.72;;;12.39;81.02
43503;BME280;29098;48.184;16.298;2023-02-19T09:51:18;99350.28;;;12.53;80.96
43503;BME280;29098;48.184;16.298;2023-02-19T09:53:44;99340.56;;;12.60;79.42
43503;BME280;29098;48.184;16.298;2023-02-19T09:56:11;99315.28;;;12.51;78.45
43503;BME280;29098;48.184;16.298;2023-02-19T09:58:48;99324.47;;;12.55;78.81
43503;BME280;29098;48.184;16.298;2023-02-19T10:01:15;99345.91;;;12.74;76.84
43503;BME280;29098;48.184;16.298;2023-02-19T10:03:45;99335.41;;;12.87;74.99
43503;BME280;29098;48.184;16.298;2023-02-19T10:06:19;99327.69;;;12.93;74.61
43503;BME280;29098;48.184;16.298;2023-02-19T10:08:47;99333.00;;;12.93;75.03
43503;BME280;29098;48.184;16.298;2023-02-19T10:11:14;99338.88;;;12.88;74.08
43503;BME280;29098;48.184;16.298;2023-02-19T10:13:44;99324.81;;;12.87;72.58
43503;BME280;29098;48.184;16.298;2023-02-19T10:16:13;99317.06;;;12.86;71.75
43503;BME280;29098;48.184;16.298;2023-02-19T10:18:42;99329.59;;;13.12;69.92
43503;BME280;29098;48.184;16.298;2023-02-19T10:21:14;99339.56;;;13.10;69.97
43503;BME280;29098;48.184;16.298;2023-02-19T10:23:40;99349.13;;;13.11;70.64
43503;BME280;29098;48.184;16.298;2023-02-19T10:26:07;99342.16;;;13.46;70.11
43503;BME280;29098;48.184;16.298;2023-02-19T10:28:33;99353.06;;;13.29;69.29
43503;BME280;29098;48.184;16.298;2023-02-19T10:30:59;99342.47;;;13.29;68.29
43503;BME280;29098;48.184;16.298;2023-02-19T10:33:25;99359.06;;;13.51;67.57
43503;BME280;29098;48.184;16.298;2023-02-19T10:38:19;99348.69;;;13.63;65.57
43503;BME280;29098;48.184;16.298;2023-02-19T10:40:45;99353.38;;;13.75;65.20
43503;BME280;29098;48.184;16.298;2023-02-19T10:43:51;99354.41;;;13.94;64.59
43503;BME280;29098;48.184;16.298;2023-02-19T10:46:05;99340.94;;;13.82;63.22
43503;BME280;29098;48.184;16.298;2023-02-19T10:48:40;99372.97;;;13.80;63.71
43503;BME280;29098;48.184;16.298;2023-02-19T10:51:08;99377.44;;;13.80;63.22
43503;BME280;29098;48.184;16.298;2023-02-19T10:53:43;99366.03;;;13.93;63.19
43503;BME280;29098;48.184;16.298;2023-02-19T10:58:33;99359.44;;;14.63;61.04
43503;BME280;29098;48.184;16.298;2023-02-19T11:01:11;99376.38;;;14.62;60.29
43503;BME280;29098;48.184;16.298;2023-02-19T11:03:37;99390.19;;;14.98;59.45
43503;BME280;29098;48.184;16.298;2023-02-19T11:06:03;99367.69;;;15.07;59.78
43503;BME280;29098;48.184;16.298;2023-02-19T11:08:32;99364.69;;;15.36;58.74
43503;BME280;29098;48.184;16.298;2023-02-19T11:11:02;99375.28;;;15.03;59.03
43503;BME280;29098;48.184;16.298;2023-02-19T11:13:30;99378.56;;;14.99;58.59
43503;BME280;29098;48.184;16.298;2023-02-19T11:15:56;99363.78;;;15.55;57.69
43503;BME280;29098;48.184;16.298;2023-02-19T11:20:49;99361.41;;;16.30;55.79
43503;BME280;29098;48.184;16.298;2023-02-19T11:23:16;99379.28;;;15.58;55.11
43503;BME280;29098;48.184;16.298;2023-02-19T11:25:46;99360.19;;;16.07;55.00
43503;BME280;29098;48.184;16.298;2023-02-19T11:30:38;99357.59;;;17.01;52.04
43503;BME280;29098;48.184;16.298;2023-02-19T11:36:03;99376.25;;;18.04;50.45
43503;BME280;29098;48.184;16.298;2023-02-19T11:38:34;99355.78;;;17.74;50.79
43503;BME280;29098;48.184;16.298;2023-02-19T11:54:12;99366.63;;;14.42;57.48
43503;BME280;29098;48.184;16.298;2023-02-19T11:56:42;99380.31;;;13.92;58.51
43503;BME280;29098;48.184;16.298;2023-02-19T11:59:17;99367.47;;;13.89;59.07
43503;BME280;29098;48.184;16.298;2023-02-19T12:07:08;99382.84;;;13.45;66.14
43503;BME280;29098;48.184;16.298;2023-02-19T12:15:03;99369.97;;;12.79;70.76
43503;BME280;29098;48.184;16.298;2023-02-19T12:20:13;99380.44;;;12.66;71.63
43503;BME280;29098;48.184;16.298;2023-02-19T12:30:46;99380.84;;;13.53;67.21
43503;BME280;29098;48.184;16.298;2023-02-19T12:35:51;99363.25;;;13.32;65.84
43503;BME280;29098;48.184;16.298;2023-02-19T12:38:21;99389.34;;;13.42;65.77
43503;BME280;29098;48.184;16.298;2023-02-19T12:43:39;99399.22;;;13.68;64.30
43503;BME280;29098;48.184;16.298;2023-02-19T12:46:15;99382.69;;;13.53;64.06
43503;BME280;29098;48.184;16.298;2023-02-19T12:54:26;99381.72;;;14.48;60.75
43503;BME280;29098;48.184;16.298;2023-02-19T12:56:58;99388.69;;;14.22;61.38
43503;BME280;29098;48.184;16.298;2023-02-19T12:59:37;99366.19;;;14.59;60.09
43503;BME280;29098;48.184;16.298;2023-02-19T13:04:46;99370.19;;;14.95;57.90
43503;BME280;29098;48.184;16.298;2023-02-19T13:07:15;99374.16;;;15.25;57.48
43503;BME280;29098;48.184;16.298;2023-02-19T13:09:52;99345.91;;;15.37;57.30
43503;BME280;29098;48.184;16.298;2023-02-19T13:12:26;99369.09;;;15.55;55.67
43503;BME280;29098;48.184;16.298;2023-02-19T13:14:55;99376.22;;;15.94;55.60
43503;BME280;29098;48.184;16.298;2023-02-19T13:17:56;99372.22;;;15.78;55.25
43503;BME280;29098;48.184;16.298;2023-02-19T13:22:41;99382.91;;;16.47;52.08
43503;BME280;29098;48.184;16.298;2023-02-19T13:25:38;99381.72;;;16.68;50.79
43503;BME280;29098;48.184;16.298;2023-02-19T13:28:19;99387.53;;;16.59;49.60
43503;BME280;29098;48.184;16.298;2023-02-19T13:31:03;99385.25;;;15.54;51.95
43503;BME280;29098;48.184;16.298;2023-02-19T13:33:42;99400.03;;;14.90;53.75
43503;BME280;29098;48.184;16.298;2023-02-19T13:36:11;99365.00;;;14.28;55.97
43503;BME280;29098;48.184;16.298;2023-02-19T13:38:45;99365.03;;;14.14;57.21
43503;BME280;29098;48.184;16.298;2023-02-19T13:41:31;99362.19;;;14.02;57.88
43503;BME280;29098;48.184;16.298;2023-02-19T13:44:03;99369.06;;;13.69;59.19
43503;BME280;29098;48.184;16.298;2023-02-19T13:46:32;99379.81;;;13.48;60.16
43503;BME280;29098;48.184;16.298;2023-02-19T13:51:50;99368.00;;;13.01;62.33
43503;BME280;29098;48.184;16.298;2023-02-19T13:54:34;99383.09;;;12.66;64.70
43503;BME280;29098;48.184;16.298;2023-02-19T13:59:57;99376.78;;;12.31;67.48
43503;BME280;29098;48.184;16.298;2023-02-19T14:02:30;99404.72;;;12.19;67.77
43503;BME280;29098;48.184;16.298;2023-02-19T14:04:56;99381.47;;;12.29;68.33
43503;BME280;29098;48.184;16.298;2023-02-19T14:09:55;99384.25;;;12.21;67.79
43503;BME280;29098;48.184;16.298;2023-02-19T14:12:29;99401.88;;;12.14;67.87
43503;BME280;29098;48.184;16.298;2023-02-19T14:14:55;99412.66;;;12.19;67.91
43503;BME280;29098;48.184;16.298;2023-02-19T14:19:50;99410.91;;;12.04;68.20
43503;BME280;29098;48.184;16.298;2023-02-19T14:25:00;99420.28;;;12.07;67.54
43503;BME280;29098;48.184;16.298;2023-02-19T14:27:31;99439.63;;;11.92;68.66
43503;BME280;29098;48.184;16.298;2023-02-19T14:29:56;99459.66;;;12.02;68.79
43503;BME280;29098;48.184;16.298;2023-02-19T14:32:22;99459.13;;;11.91;70.78
43503;BME280;29098;48.184;16.298;2023-02-19T14:34:48;99457.13;;;11.72;71.54
43503;BME280;29098;48.184;16.298;2023-02-19T14:37:17;99470.22;;;11.65;73.50
43503;BME280;29098;48.184;16.298;2023-02-19T14:39:44;99476.16;;;11.67;74.03
43503;BME280;29098;48.184;16.298;2023-02-19T14:42:16;99461.06;;;11.46;75.52
43503;BME280;29098;48.184;16.298;2023-02-19T14:47:16;99470.84;;;11.15;77.98